Terminal Aerodrome Forecast
Issued by NWS Austin/San Antonio, TX

Current Version | Previous Version | Text Only | Print | Product List | Glossary On
Versions: 1 2 3 4 5 6 7 8 9 10 11 12 13 14 15 16 17 18 19
000
FTUS44 KEWX 252340
TAFSAT
TAF
KSAT 252340Z 2600/2706 10010KT P6SM SCT050 BKN250
     FM260700 15005KT P6SM BKN012
     FM261500 14005KT P6SM SCT025
     FM261600 12008KT P6SM SCT035=

USA.gov is the U.S. government's official web portal to all federal, state and local government web resources and services.